Time;durP1;ratioP1;P1;durP2;ratioP2;P2;SDS_P1;SDS_P2;PMS_P1;PMS_P2;Temp;Humidity;BMP_temperature;BMP_pressure;BME280_temperature;BME280_humidity;BME280_pressure;Samples;Min_cycle;Max_cycle;Signal;HPM_P1;HPM_P2
2023/01/09 00:00:45;;;;;;;1.05;0.73;;;;;;;;;;4995653;28;20499;-70
2023/01/09 00:03:10;;;;;;;4.15;1.02;;;;;;;;;;4998658;28;20360;-70
2023/01/09 00:05:36;;;;;;;11.32;0.90;;;;;;;;;;4992413;28;20026;-71
2023/01/09 00:08:01;;;;;;;2.63;0.85;;;;;;;;;;5002788;28;20018;-71
2023/01/09 00:10:26;;;;;;;0.32;0.30;;;;;;;;;;4995340;28;20064;-71
2023/01/09 00:12:51;;;;;;;2.40;0.73;;;;;;;;;;4997524;28;20022;-70
2023/01/09 00:15:17;;;;;;;0.47;0.40;;;;;;;;;;4982000;28;20662;-70
2023/01/09 00:17:42;;;;;;;0.70;0.40;;;;;;;;;;4995568;28;20260;-71
2023/01/09 00:20:08;;;;;;;2.83;0.60;;;;;;;;;;4996104;28;20082;-71
2023/01/09 00:22:34;;;;;;;1.17;0.50;;;;;;;;;;5001506;28;20527;-70
2023/01/09 00:24:59;;;;;;;1.95;0.60;;;;;;;;;;4997023;28;20102;-70
2023/01/09 00:27:24;;;;;;;0.73;0.20;;;;;;;;;;4997867;28;20443;-71
2023/01/09 00:29:49;;;;;;;0.30;0.20;;;;;;;;;;4992531;28;20377;-70
2023/01/09 00:32:14;;;;;;;1.03;0.40;;;;;;;;;;4997938;28;20728;-71
2023/01/09 00:34:41;;;;;;;0.25;0.13;;;;;;;;;;4995219;28;20296;-71
2023/01/09 00:37:10;;;;;;;0.73;0.20;;;;;;;;;;4994437;28;20366;-70
2023/01/09 00:39:39;;;;;;;0.15;0.10;;;;;;;;;;4998552;28;20022;-71
2023/01/09 00:42:05;;;;;;;0.55;0.28;;;;;;;;;;4998024;28;20086;-71
2023/01/09 00:44:40;;;;;;;0.50;0.20;;;;;;;;;;4977427;28;20030;-71
2023/01/09 00:47:09;;;;;;;0.32;0.20;;;;;;;;;;4998251;28;20030;-71
2023/01/09 00:49:35;;;;;;;0.32;0.20;;;;;;;;;;4992004;28;20022;-71
2023/01/09 00:52:01;;;;;;;4.97;0.47;;;;;;;;;;4997456;28;20096;-71
2023/01/09 00:54:27;;;;;;;4.05;0.20;;;;;;;;;;4995080;28;20022;-71
2023/01/09 00:56:53;;;;;;;1.52;0.20;;;;;;;;;;4996568;28;20048;-71
2023/01/09 00:59:18;;;;;;;0.10;0.10;;;;;;;;;;4995438;28;20037;-71
2023/01/09 01:01:43;;;;;;;0.30;0.30;;;;;;;;;;4999839;28;20014;-71
2023/01/09 01:09:36;;;;;;;0.20;0.20;;;;;;;;;;4987484;28;20089;-71
2023/01/09 01:12:05;;;;;;;0.17;0.10;;;;;;;;;;4994343;28;20026;-72
2023/01/09 01:14:31;;;;;;;0.98;0.20;;;;;;;;;;4987707;28;20074;-71
2023/01/09 01:16:56;;;;;;;0.88;0.25;;;;;;;;;;4992257;28;20022;-71
2023/01/09 01:19:21;;;;;;;0.60;0.20;;;;;;;;;;4974563;28;20086;-71
2023/01/09 01:21:46;;;;;;;0.17;0.17;;;;;;;;;;4996200;28;20622;-71
2023/01/09 01:24:11;;;;;;;0.00;0.00;;;;;;;;;;4993895;28;20393;-71
2023/01/09 01:26:36;;;;;;;0.33;0.20;;;;;;;;;;4999994;28;20657;-71
2023/01/09 01:29:02;;;;;;;0.30;0.10;;;;;;;;;;4995697;28;20380;-71
2023/01/09 01:31:27;;;;;;;0.20;0.20;;;;;;;;;;4994277;28;20634;-71
2023/01/09 01:33:52;;;;;;;0.35;0.20;;;;;;;;;;4995220;28;20078;-71
2023/01/09 01:36:17;;;;;;;0.40;0.20;;;;;;;;;;4995441;28;20054;-71
2023/01/09 01:38:42;;;;;;;1.48;0.22;;;;;;;;;;4993698;28;20048;-71
2023/01/09 01:41:08;;;;;;;2.17;0.20;;;;;;;;;;4991756;28;20049;-71
2023/01/09 01:43:49;;;;;;;0.20;0.20;;;;;;;;;;4996479;28;20645;-71
2023/01/09 01:46:15;;;;;;;0.77;0.30;;;;;;;;;;4995189;28;20117;-71
2023/01/09 01:48:41;;;;;;;0.10;0.10;;;;;;;;;;4996680;28;20022;-71
2023/01/09 01:51:06;;;;;;;0.70;0.30;;;;;;;;;;4984398;28;20022;-71
2023/01/09 01:53:33;;;;;;;0.10;0.10;;;;;;;;;;4995734;28;20265;-71
2023/01/09 01:56:01;;;;;;;0.20;0.20;;;;;;;;;;4992311;28;20030;-71
2023/01/09 01:58:26;;;;;;;2.20;0.20;;;;;;;;;;4976992;28;20064;-71
2023/01/09 02:00:52;;;;;;;0.32;0.20;;;;;;;;;;4994308;28;20642;-71
2023/01/09 02:03:19;;;;;;;0.28;0.22;;;;;;;;;;4996311;28;20022;-71
2023/01/09 02:05:44;;;;;;;1.02;0.30;;;;;;;;;;4991900;28;20076;-71
2023/01/09 02:08:09;;;;;;;0.15;0.13;;;;;;;;;;4994523;28;20062;-71
2023/01/09 02:10:35;;;;;;;0.20;0.20;;;;;;;;;;4994909;28;20018;-71
2023/01/09 02:13:01;;;;;;;0.10;0.10;;;;;;;;;;4984255;28;20050;-71
2023/01/09 02:15:28;;;;;;;0.47;0.30;;;;;;;;;;4996736;28;20054;-71
2023/01/09 02:18:14;;;;;;;1.98;0.30;;;;;;;;;;4995454;28;20025;-72
2023/01/09 02:20:52;;;;;;;1.48;0.32;;;;;;;;;;4993531;28;20077;-71
2023/01/09 02:23:36;;;;;;;0.47;0.30;;;;;;;;;;4989256;28;20042;-71
2023/01/09 02:26:17;;;;;;;4.10;0.40;;;;;;;;;;4995203;28;20451;-71
2023/01/09 02:28:45;;;;;;;0.30;0.20;;;;;;;;;;4995769;28;20068;-71
2023/01/09 02:31:20;;;;;;;1.88;0.30;;;;;;;;;;4995431;28;20404;-71
2023/01/09 02:34:09;;;;;;;0.98;0.28;;;;;;;;;;4988298;28;20108;-71
2023/01/09 02:36:57;;;;;;;0.50;0.30;;;;;;;;;;4989593;28;20022;-71
2023/01/09 02:39:26;;;;;;;2.90;0.43;;;;;;;;;;4993109;28;20022;-71
2023/01/09 02:41:54;;;;;;;1.50;0.20;;;;;;;;;;4989995;28;20025;-71
2023/01/09 02:44:24;;;;;;;5.65;0.73;;;;;;;;;;4993837;28;20025;-71
2023/01/09 02:47:00;;;;;;;0.85;0.20;;;;;;;;;;4988526;28;20554;-71
2023/01/09 02:49:26;;;;;;;0.63;0.50;;;;;;;;;;4984575;28;20627;-71
2023/01/09 02:51:52;;;;;;;0.52;0.30;;;;;;;;;;4989252;28;20030;-71
2023/01/09 02:54:23;;;;;;;0.80;0.28;;;;;;;;;;4989071;28;20027;-72
2023/01/09 02:56:54;;;;;;;0.28;0.20;;;;;;;;;;4988727;28;20022;-71
2023/01/09 02:59:38;;;;;;;0.60;0.30;;;;;;;;;;4988321;28;20352;-71
2023/01/09 03:02:28;;;;;;;0.80;0.28;;;;;;;;;;4990467;28;20479;-71
2023/01/09 03:05:16;;;;;;;0.43;0.30;;;;;;;;;;4990586;28;20462;-71
2023/01/09 03:07:48;;;;;;;1.02;0.20;;;;;;;;;;4953160;28;20377;-71
2023/01/09 03:10:18;;;;;;;0.17;0.10;;;;;;;;;;4996128;28;20022;-71
2023/01/09 03:12:44;;;;;;;1.08;0.17;;;;;;;;;;4988314;28;20030;-71
2023/01/09 03:15:11;;;;;;;1.55;0.25;;;;;;;;;;4990535;28;20022;-71
2023/01/09 03:17:37;;;;;;;1.27;0.40;;;;;;;;;;4989155;28;20037;-71
2023/01/09 03:20:04;;;;;;;0.80;0.47;;;;;;;;;;4996187;28;20034;-71
2023/01/09 03:22:29;;;;;;;1.02;0.40;;;;;;;;;;4988684;28;20022;-71
2023/01/09 03:24:54;;;;;;;2.13;0.57;;;;;;;;;;4988677;28;20023;-71
2023/01/09 03:27:19;;;;;;;2.63;0.60;;;;;;;;;;4988791;28;20029;-71
2023/01/09 03:29:45;;;;;;;0.22;0.20;;;;;;;;;;4988354;28;20030;-71
2023/01/09 03:32:10;;;;;;;0.50;0.37;;;;;;;;;;4989115;28;20415;-71
2023/01/09 03:34:35;;;;;;;1.92;0.52;;;;;;;;;;4989650;28;20274;-71
2023/01/09 03:37:00;;;;;;;0.87;0.30;;;;;;;;;;4974259;28;20018;-71
2023/01/09 03:39:25;;;;;;;3.28;0.50;;;;;;;;;;4994338;28;20273;-71
2023/01/09 03:41:51;;;;;;;0.77;0.50;;;;;;;;;;4990745;28;20487;-71
2023/01/09 03:44:16;;;;;;;5.40;0.60;;;;;;;;;;4992633;28;20120;-71
2023/01/09 03:46:41;;;;;;;4.30;0.80;;;;;;;;;;4993026;28;20273;-71
2023/01/09 03:49:06;;;;;;;3.17;0.73;;;;;;;;;;4993096;28;20804;-71
2023/01/09 03:51:31;;;;;;;1.83;0.40;;;;;;;;;;4994414;28;20375;-71
2023/01/09 03:53:57;;;;;;;6.80;0.77;;;;;;;;;;4994666;28;20038;-72
2023/01/09 03:56:22;;;;;;;6.25;0.95;;;;;;;;;;4988511;28;20030;-72
2023/01/09 03:58:49;;;;;;;2.80;0.70;;;;;;;;;;4990642;28;20034;-72
2023/01/09 04:01:14;;;;;;;6.18;0.60;;;;;;;;;;4993051;28;20280;-72
2023/01/09 04:03:39;;;;;;;2.90;0.82;;;;;;;;;;5000966;28;20022;-72
2023/01/09 04:06:05;;;;;;;11.30;0.67;;;;;;;;;;4992643;28;20142;-72
2023/01/09 04:08:30;;;;;;;2.05;0.60;;;;;;;;;;4996755;28;20324;-72
2023/01/09 04:10:55;;;;;;;1.08;0.40;;;;;;;;;;4990361;28;20022;-72
2023/01/09 04:13:21;;;;;;;3.10;0.52;;;;;;;;;;4988752;28;20497;-72
2023/01/09 04:15:46;;;;;;;1.25;0.20;;;;;;;;;;4991089;28;20471;-72
2023/01/09 04:18:11;;;;;;;3.40;0.60;;;;;;;;;;4993017;28;20038;-72
2023/01/09 04:20:36;;;;;;;2.45;0.90;;;;;;;;;;4996342;28;20022;-72
2023/01/09 04:23:02;;;;;;;4.05;0.45;;;;;;;;;;4991472;28;20073;-71
2023/01/09 04:25:27;;;;;;;0.85;0.35;;;;;;;;;;4994657;28;20030;-71
2023/01/09 04:27:52;;;;;;;5.25;0.80;;;;;;;;;;4990511;28;20406;-71
2023/01/09 04:30:17;;;;;;;9.70;0.90;;;;;;;;;;4998112;28;20026;-71
2023/01/09 04:32:43;;;;;;;1.33;0.65;;;;;;;;;;4997429;28;20026;-71
2023/01/09 04:35:08;;;;;;;4.80;0.57;;;;;;;;;;4994307;28;20374;-71
2023/01/09 04:37:35;;;;;;;4.35;0.70;;;;;;;;;;4992328;28;20034;-71
2023/01/09 04:40:03;;;;;;;2.55;0.68;;;;;;;;;;4991438;28;20042;-71
2023/01/09 04:42:28;;;;;;;6.85;1.00;;;;;;;;;;4994128;28;20041;-72
2023/01/09 04:44:53;;;;;;;3.20;1.23;;;;;;;;;;4990448;28;20026;-72
2023/01/09 04:47:19;;;;;;;1.65;0.50;;;;;;;;;;4992030;28;20053;-72
2023/01/09 04:49:44;;;;;;;6.72;0.70;;;;;;;;;;4994386;28;20089;-72
2023/01/09 04:58:40;;;;;;;1.25;0.60;;;;;;;;;;4983042;28;20032;-72
2023/01/09 05:01:05;;;;;;;3.20;1.02;;;;;;;;;;4991742;28;20073;-72
2023/01/09 05:03:30;;;;;;;2.42;0.77;;;;;;;;;;4989770;28;20483;-72
2023/01/09 05:05:55;;;;;;;1.95;0.28;;;;;;;;;;4986125;28;20319;-71
2023/01/09 05:10:48;;;;;;;1.85;0.25;;;;;;;;;;5007881;28;20046;-68
2023/01/09 05:13:13;;;;;;;1.83;0.27;;;;;;;;;;5010506;28;20081;-69
2023/01/09 05:15:38;;;;;;;4.07;0.90;;;;;;;;;;5009422;28;20644;-69
2023/01/09 05:18:04;;;;;;;0.47;0.30;;;;;;;;;;5003923;28;20264;-69
2023/01/09 05:20:29;;;;;;;6.28;0.50;;;;;;;;;;5008926;28;20030;-69
2023/01/09 05:22:54;;;;;;;1.70;0.30;;;;;;;;;;5008701;28;20026;-69
2023/01/09 05:25:19;;;;;;;2.70;0.75;;;;;;;;;;5004735;28;20285;-69
2023/01/09 05:27:45;;;;;;;1.23;0.60;;;;;;;;;;5008600;28;20069;-69
2023/01/09 05:30:11;;;;;;;4.25;0.70;;;;;;;;;;5008308;28;20375;-69
2023/01/09 05:32:36;;;;;;;1.88;0.68;;;;;;;;;;5009041;28;20014;-69
2023/01/09 05:35:01;;;;;;;6.10;1.63;;;;;;;;;;5009198;28;20470;-68
2023/01/09 05:37:26;;;;;;;1.08;0.43;;;;;;;;;;5009595;28;20273;-68
2023/01/09 05:39:51;;;;;;;0.40;0.37;;;;;;;;;;5009476;28;20045;-68
2023/01/09 05:42:16;;;;;;;2.43;0.43;;;;;;;;;;5009677;28;20867;-68
2023/01/09 05:44:41;;;;;;;1.87;0.70;;;;;;;;;;5009040;28;20289;-68
2023/01/09 05:47:07;;;;;;;0.50;0.30;;;;;;;;;;5004468;28;20688;-68
2023/01/09 05:49:32;;;;;;;1.33;0.57;;;;;;;;;;5008730;28;20303;-69
2023/01/09 05:51:57;;;;;;;1.48;0.60;;;;;;;;;;5010454;28;20808;-69
2023/01/09 05:54:22;;;;;;;2.73;0.97;;;;;;;;;;5008844;28;20423;-69
2023/01/09 05:56:47;;;;;;;4.82;0.85;;;;;;;;;;5009838;28;20271;-67
2023/01/09 05:59:13;;;;;;;1.77;0.50;;;;;;;;;;5007692;28;20447;-69
2023/01/09 06:01:38;;;;;;;4.75;0.75;;;;;;;;;;5009728;28;20276;-69
2023/01/09 06:04:03;;;;;;;13.93;1.33;;;;;;;;;;5009296;28;20029;-68
2023/01/09 06:06:28;;;;;;;14.25;0.63;;;;;;;;;;5009507;28;20367;-68
2023/01/09 06:08:54;;;;;;;4.63;0.82;;;;;;;;;;5009494;28;20063;-68
2023/01/09 06:11:19;;;;;;;3.20;0.50;;;;;;;;;;5010222;28;20109;-68
2023/01/09 06:13:44;;;;;;;0.98;0.65;;;;;;;;;;5009830;28;20022;-68
2023/01/09 06:16:09;;;;;;;3.30;0.65;;;;;;;;;;5008345;28;20018;-68
2023/01/09 06:18:35;;;;;;;2.42;0.60;;;;;;;;;;5010546;28;20434;-68
2023/01/09 06:21:00;;;;;;;4.70;0.93;;;;;;;;;;5004637;28;20010;-68
2023/01/09 06:23:25;;;;;;;7.03;0.65;;;;;;;;;;5010750;28;20466;-68
2023/01/09 06:25:50;;;;;;;1.37;0.60;;;;;;;;;;5008009;28;20036;-69
2023/01/09 06:28:15;;;;;;;6.53;1.30;;;;;;;;;;5008575;28;20360;-68
2023/01/09 06:30:40;;;;;;;4.07;0.75;;;;;;;;;;5008809;28;20301;-68
2023/01/09 06:33:06;;;;;;;3.35;0.75;;;;;;;;;;5009177;28;20084;-68
2023/01/09 06:35:31;;;;;;;3.85;0.80;;;;;;;;;;5008289;28;20053;-69
2023/01/09 06:37:57;;;;;;;8.00;0.68;;;;;;;;;;5009496;28;20026;-68
2023/01/09 06:40:22;;;;;;;5.47;0.85;;;;;;;;;;5008209;28;20022;-68
2023/01/09 06:42:48;;;;;;;2.28;0.93;;;;;;;;;;5001204;28;20108;-69
2023/01/09 06:45:13;;;;;;;8.38;0.57;;;;;;;;;;5007374;28;20809;-69
2023/01/09 06:47:38;;;;;;;0.68;0.25;;;;;;;;;;5009086;28;20022;-69
2023/01/09 06:50:04;;;;;;;2.05;0.73;;;;;;;;;;5007571;28;20025;-69
2023/01/09 06:52:29;;;;;;;8.40;0.70;;;;;;;;;;5009105;28;20018;-69
2023/01/09 06:54:54;;;;;;;7.35;1.00;;;;;;;;;;5008337;28;20009;-69
2023/01/09 06:57:19;;;;;;;5.10;0.80;;;;;;;;;;5007531;28;20026;-69
2023/01/09 06:59:45;;;;;;;11.73;0.75;;;;;;;;;;5003938;28;20272;-69
2023/01/09 07:02:15;;;;;;;1.40;1.07;;;;;;;;;;5004753;28;20277;-69
2023/01/09 07:04:40;;;;;;;0.95;0.30;;;;;;;;;;5003332;28;20281;-69
2023/01/09 07:07:06;;;;;;;1.43;0.50;;;;;;;;;;4999203;28;20410;-70
2023/01/09 07:09:31;;;;;;;3.63;0.68;;;;;;;;;;5007662;28;20296;-69
2023/01/09 07:11:56;;;;;;;1.75;0.55;;;;;;;;;;5009810;28;20787;-69
2023/01/09 07:14:21;;;;;;;0.85;0.52;;;;;;;;;;5010593;28;20304;-70
2023/01/09 07:16:46;;;;;;;2.93;0.53;;;;;;;;;;5004873;28;20292;-70
2023/01/09 07:19:11;;;;;;;3.47;0.77;;;;;;;;;;5009792;28;21349;-69
2023/01/09 07:21:36;;;;;;;0.57;0.40;;;;;;;;;;5009697;28;20287;-69
2023/01/09 07:24:02;;;;;;;5.40;0.90;;;;;;;;;;5013311;28;20297;-69
2023/01/09 07:26:27;;;;;;;9.32;0.70;;;;;;;;;;5009979;28;20269;-70
2023/01/09 07:28:53;;;;;;;0.87;0.50;;;;;;;;;;5013698;28;20033;-69
2023/01/09 07:31:18;;;;;;;1.50;0.47;;;;;;;;;;5011240;28;20339;-69
2023/01/09 07:33:43;;;;;;;4.60;0.50;;;;;;;;;;5006024;28;20056;-70
2023/01/09 07:36:08;;;;;;;1.70;0.70;;;;;;;;;;5010288;28;20330;-69
2023/01/09 07:38:34;;;;;;;7.07;2.33;;;;;;;;;;5012972;28;20034;-68
2023/01/09 07:40:59;;;;;;;1.38;0.50;;;;;;;;;;5004664;28;20013;-68
2023/01/09 07:43:24;;;;;;;2.53;0.50;;;;;;;;;;5012313;28;20034;-69
2023/01/09 07:45:49;;;;;;;1.35;0.32;;;;;;;;;;5009952;28;20367;-69
2023/01/09 07:48:14;;;;;;;0.53;0.47;;;;;;;;;;5010270;28;20057;-69
2023/01/09 07:50:40;;;;;;;7.70;0.80;;;;;;;;;;5010839;28;20280;-69
2023/01/09 07:53:05;;;;;;;1.15;0.40;;;;;;;;;;5012670;28;20284;-69
2023/01/09 07:55:30;;;;;;;4.60;0.93;;;;;;;;;;5010526;28;20056;-70
2023/01/09 07:57:55;;;;;;;14.00;1.00;;;;;;;;;;5011755;28;20265;-69
2023/01/09 08:00:20;;;;;;;0.83;0.40;;;;;;;;;;5005344;28;21945;-69
2023/01/09 08:02:50;;;;;;;0.77;0.13;;;;;;;;;;5009113;28;20419;-69
2023/01/09 08:05:15;;;;;;;2.50;0.30;;;;;;;;;;5010285;28;20045;-69
2023/01/09 08:07:41;;;;;;;3.72;0.55;;;;;;;;;;4993713;28;20044;-69
2023/01/09 08:10:07;;;;;;;7.80;0.73;;;;;;;;;;5012265;28;20489;-69
2023/01/09 08:12:32;;;;;;;2.10;0.95;;;;;;;;;;5008654;28;20885;-69
2023/01/09 08:14:58;;;;;;;7.23;1.03;;;;;;;;;;5010205;28;20017;-68
2023/01/09 08:17:23;;;;;;;1.17;0.68;;;;;;;;;;5009997;28;20684;-67
2023/01/09 08:19:48;;;;;;;1.17;0.40;;;;;;;;;;5011230;28;20085;-67
2023/01/09 08:22:13;;;;;;;4.23;0.60;;;;;;;;;;5008560;28;20305;-67
2023/01/09 08:24:38;;;;;;;10.63;0.43;;;;;;;;;;5010043;28;20289;-67
2023/01/09 08:27:04;;;;;;;3.37;0.67;;;;;;;;;;5007382;28;20287;-67
2023/01/09 08:29:29;;;;;;;1.77;0.60;;;;;;;;;;5005653;28;20340;-67
2023/01/09 08:31:54;;;;;;;1.65;0.28;;;;;;;;;;5007270;28;20022;-67
2023/01/09 08:34:19;;;;;;;0.85;0.50;;;;;;;;;;4990456;28;20025;-67
2023/01/09 08:36:44;;;;;;;1.80;0.97;;;;;;;;;;5005903;28;20018;-67
2023/01/09 08:39:10;;;;;;;6.83;0.60;;;;;;;;;;5010596;28;20269;-67
2023/01/09 08:47:06;;;;;;;2.15;0.80;;;;;;;;;;5029899;28;20096;-67
2023/01/09 08:49:31;;;;;;;3.53;0.75;;;;;;;;;;5030180;28;20039;-67
2023/01/09 08:51:57;;;;;;;2.65;0.77;;;;;;;;;;5025747;28;20100;-68
2023/01/09 08:54:22;;;;;;;2.23;0.63;;;;;;;;;;5026292;28;20028;-67
2023/01/09 08:56:47;;;;;;;0.63;0.40;;;;;;;;;;5024095;28;20280;-67
2023/01/09 08:59:12;;;;;;;1.13;0.40;;;;;;;;;;5009447;28;20276;-68
2023/01/09 09:01:38;;;;;;;5.35;0.75;;;;;;;;;;5025909;28;20064;-67
2023/01/09 09:04:04;;;;;;;4.45;0.73;;;;;;;;;;5027502;28;20132;-67
2023/01/09 09:06:29;;;;;;;4.50;0.95;;;;;;;;;;5029513;28;20028;-67
2023/01/09 09:08:55;;;;;;;3.03;0.82;;;;;;;;;;5030762;28;20025;-68
2023/01/09 09:11:20;;;;;;;3.28;0.60;;;;;;;;;;5028211;28;20394;-67
2023/01/09 09:13:45;;;;;;;3.17;0.60;;;;;;;;;;5026612;28;20045;-67
2023/01/09 09:16:10;;;;;;;1.38;0.70;;;;;;;;;;5029496;28;20096;-68
2023/01/09 09:18:35;;;;;;;4.70;0.77;;;;;;;;;;5028544;28;20477;-67
2023/01/09 09:21:01;;;;;;;1.00;0.93;;;;;;;;;;5026540;28;20276;-67
2023/01/09 09:23:26;;;;;;;8.20;0.77;;;;;;;;;;5029306;28;20256;-68
2023/01/09 09:25:51;;;;;;;4.63;0.90;;;;;;;;;;5028812;28;20060;-68
2023/01/09 09:28:16;;;;;;;5.33;0.97;;;;;;;;;;5028151;28;20275;-68
2023/01/09 09:30:41;;;;;;;2.43;0.63;;;;;;;;;;5028043;28;20894;-69
2023/01/09 09:33:06;;;;;;;1.73;0.60;;;;;;;;;;5027019;28;20283;-69
2023/01/09 09:35:32;;;;;;;2.43;0.97;;;;;;;;;;5026654;28;21074;-68
2023/01/09 09:37:59;;;;;;;0.85;0.43;;;;;;;;;;5025229;28;20310;-69
2023/01/09 09:40:40;;;;;;;6.38;0.40;;;;;;;;;;5026801;28;20029;-70
2023/01/09 09:46:08;;;;;;;0.95;0.50;;;;;;;;;;4990808;28;20000;-68
2023/01/09 09:48:39;;;;;;;1.00;0.20;;;;;;;;;;5025557;28;20038;-68
2023/01/09 09:51:04;;;;;;;;;;;;;;;;;;5025185;28;20036;-70
2023/01/09 09:53:41;;;;;;;3.42;0.77;;;;;;;;;;5028378;28;19909;-70
2023/01/09 09:56:10;;;;;;;3.50;0.40;;;;;;;;;;5028114;28;20028;-70
2023/01/09 09:58:36;;;;;;;6.32;1.30;;;;;;;;;;5024943;28;20147;-70
2023/01/09 10:01:02;;;;;;;3.45;0.68;;;;;;;;;;5020732;28;20028;-70
2023/01/09 10:03:28;;;;;;;2.00;0.57;;;;;;;;;;5027963;28;20017;-70
2023/01/09 10:05:53;;;;;;;3.58;1.00;;;;;;;;;;5025659;28;20025;-70
2023/01/09 10:08:41;;;;;;;5.03;1.30;;;;;;;;;;5027372;28;20025;-70
2023/01/09 10:11:20;;;;;;;3.10;0.82;;;;;;;;;;5013552;28;20091;-70
2023/01/09 10:14:03;;;;;;;2.10;0.80;;;;;;;;;;5021165;28;20021;-70
2023/01/09 10:16:43;;;;;;;2.90;0.45;;;;;;;;;;5021744;28;20032;-70
2023/01/09 10:19:12;;;;;;;0.98;0.40;;;;;;;;;;5026686;28;20027;-70
2023/01/09 10:21:55;;;;;;;5.28;1.00;;;;;;;;;;5022797;28;20470;-70
2023/01/09 10:24:33;;;;;;;3.97;0.50;;;;;;;;;;5023719;28;20394;-70
2023/01/09 10:27:13;;;;;;;3.92;0.90;;;;;;;;;;5022877;28;20057;-71
2023/01/09 10:29:58;;;;;;;2.50;0.75;;;;;;;;;;5023719;28;20029;-70
2023/01/09 10:32:53;;;;;;;1.55;0.60;;;;;;;;;;5024198;28;20026;-70
2023/01/09 10:35:24;;;;;;;3.58;1.10;;;;;;;;;;4969214;28;20030;-70
2023/01/09 10:37:52;;;;;;;6.85;1.20;;;;;;;;;;5023918;28;20018;-70
2023/01/09 10:40:38;;;;;;;3.90;1.63;;;;;;;;;;5007007;28;20030;-70
2023/01/09 10:43:05;;;;;;;8.73;1.60;;;;;;;;;;5025616;28;20117;-70
2023/01/09 10:45:46;;;;;;;4.78;1.00;;;;;;;;;;5020383;28;20017;-69
2023/01/09 10:48:24;;;;;;;2.83;0.90;;;;;;;;;;5023097;28;21850;-70
2023/01/09 10:50:50;;;;;;;6.07;1.48;;;;;;;;;;5019854;28;20053;-69
2023/01/09 10:53:20;;;;;;;6.95;0.80;;;;;;;;;;5005878;28;20084;-70
2023/01/09 10:55:48;;;;;;;3.63;0.47;;;;;;;;;;5023294;28;20021;-69
2023/01/09 10:58:16;;;;;;;4.72;0.60;;;;;;;;;;5023155;28;20029;-69
2023/01/09 11:00:41;;;;;;;3.83;0.30;;;;;;;;;;5022821;28;20022;-69
2023/01/09 11:03:14;;;;;;;3.25;0.70;;;;;;;;;;5019712;28;20033;-70
2023/01/09 11:05:40;;;;;;;2.40;0.70;;;;;;;;;;5015906;28;20484;-69
2023/01/09 11:08:05;;;;;;;1.25;0.40;;;;;;;;;;5026467;28;20025;-70
2023/01/09 11:10:44;;;;;;;4.17;0.40;;;;;;;;;;5033808;23;20399;-69
2023/01/09 11:13:14;;;;;;;6.30;1.02;;;;;;;;;;5003030;28;20304;-69
2023/01/09 11:15:39;;;;;;;1.95;1.15;;;;;;;;;;5003639;28;20053;-69
2023/01/09 11:18:15;;;;;;;1.85;0.55;;;;;;;;;;4995860;28;20022;-68
2023/01/09 11:20:41;;;;;;;4.47;0.60;;;;;;;;;;4992051;28;20113;-69
2023/01/09 11:23:21;;;;;;;3.53;0.50;;;;;;;;;;4997699;28;20113;-69
2023/01/09 11:25:46;;;;;;;;;;;;;;;;;;5002581;28;20022;-69
2023/01/09 11:28:11;;;;;;;4.90;0.50;;;;;;;;;;5001818;28;20176;-69
2023/01/09 11:30:50;;;;;;;6.83;0.90;;;;;;;;;;4996918;28;20783;-69
2023/01/09 11:33:19;;;;;;;4.47;0.63;;;;;;;;;;4991793;28;20273;-69
2023/01/09 11:35:55;;;;;;;4.68;1.08;;;;;;;;;;4999818;28;20449;-69
2023/01/09 11:38:21;;;;;;;4.10;0.60;;;;;;;;;;5001081;28;20501;-69
2023/01/09 11:40:49;;;;;;;6.93;0.70;;;;;;;;;;4992869;28;20049;-69
2023/01/09 11:43:17;;;;;;;4.47;1.15;;;;;;;;;;4997016;28;20623;-69
2023/01/09 11:45:48;;;;;;;6.18;0.50;;;;;;;;;;4991498;28;20169;-69
2023/01/09 11:48:31;;;;;;;1.27;0.43;;;;;;;;;;5007980;28;20029;-68
2023/01/09 11:50:57;;;;;;;2.13;0.68;;;;;;;;;;5006080;28;20049;-69
2023/01/09 11:53:23;;;;;;;2.38;0.32;;;;;;;;;;5006709;28;20022;-69
2023/01/09 11:56:01;;;;;;;1.27;0.50;;;;;;;;;;5005344;28;20043;-69
2023/01/09 11:58:31;;;;;;;5.85;0.73;;;;;;;;;;5011215;28;20100;-68
2023/01/09 12:01:13;;;;;;;1.60;0.52;;;;;;;;;;5004668;28;20239;-68
2023/01/09 12:03:56;;;;;;;0.63;0.40;;;;;;;;;;5005495;28;20493;-69
2023/01/09 12:06:24;;;;;;;5.57;0.60;;;;;;;;;;5008247;28;20118;-68
2023/01/09 12:08:50;;;;;;;2.63;0.57;;;;;;;;;;5009713;28;20030;-68
2023/01/09 12:11:34;;;;;;;1.48;0.60;;;;;;;;;;5004048;28;20072;-68
2023/01/09 12:14:31;;;;;;;2.67;0.90;;;;;;;;;;5010511;28;20029;-68
2023/01/09 12:17:12;;;;;;;7.57;0.60;;;;;;;;;;4972968;28;20033;-68
2023/01/09 12:19:38;;;;;;;;;;;;;;;;;;5008041;28;20022;-69
2023/01/09 12:22:12;;;;;;;4.65;0.75;;;;;;;;;;5006987;28;19909;-69
2023/01/09 12:24:52;;;;;;;6.30;0.73;;;;;;;;;;5003921;28;20105;-69
2023/01/09 12:27:36;;;;;;;2.22;0.68;;;;;;;;;;5003923;28;20113;-68
2023/01/09 12:30:19;;;;;;;3.40;0.50;;;;;;;;;;5006757;28;20081;-68
2023/01/09 12:33:02;;;;;;;2.00;0.40;;;;;;;;;;5006027;28;20014;-68
2023/01/09 12:35:39;;;;;;;3.42;0.70;;;;;;;;;;5008184;28;20431;-68
2023/01/09 12:38:11;;;;;;;2.95;0.30;;;;;;;;;;5009124;28;20030;-68
2023/01/09 12:40:41;;;;;;;1.08;0.50;;;;;;;;;;5008945;28;20059;-68
2023/01/09 12:43:19;;;;;;;2.90;0.43;;;;;;;;;;5010846;28;20033;-68
2023/01/09 12:45:57;;;;;;;2.33;0.57;;;;;;;;;;5005200;28;20034;-68
2023/01/09 12:48:34;;;;;;;2.47;0.47;;;;;;;;;;5010295;28;20156;-68
2023/01/09 12:51:18;;;;;;;3.55;0.47;;;;;;;;;;5008280;28;20120;-69
2023/01/09 12:53:49;;;;;;;2.28;0.47;;;;;;;;;;5006792;28;20026;-68
2023/01/09 12:56:25;;;;;;;0.77;0.35;;;;;;;;;;5008784;28;20129;-68
2023/01/09 12:58:56;;;;;;;2.28;0.50;;;;;;;;;;5010395;28;20026;-68
2023/01/09 13:01:24;;;;;;;0.98;0.45;;;;;;;;;;5008827;28;20033;-68
2023/01/09 13:04:08;;;;;;;3.85;0.50;;;;;;;;;;5006618;28;20048;-68
2023/01/09 13:06:35;;;;;;;1.00;0.50;;;;;;;;;;5003453;28;20029;-69
2023/01/09 13:09:14;;;;;;;3.00;0.70;;;;;;;;;;5006094;28;20054;-68
2023/01/09 13:12:08;;;;;;;2.22;0.75;;;;;;;;;;5004801;28;20038;-69
2023/01/09 13:14:38;;;;;;;4.18;0.70;;;;;;;;;;4984285;28;20403;-68
2023/01/09 13:17:05;;;;;;;1.95;0.88;;;;;;;;;;5009299;28;20042;-69
2023/01/09 13:19:33;;;;;;;2.83;0.70;;;;;;;;;;5006656;28;20401;-69
2023/01/09 13:21:58;;;;;;;1.42;0.80;;;;;;;;;;5010061;28;20470;-69
2023/01/09 13:24:28;;;;;;;3.45;0.70;;;;;;;;;;5005402;28;20477;-68
2023/01/09 13:27:02;;;;;;;10.05;1.17;;;;;;;;;;5008429;28;20053;-69
2023/01/09 13:29:39;;;;;;;2.33;0.70;;;;;;;;;;5003360;28;20104;-69
2023/01/09 13:32:23;;;;;;;4.05;1.45;;;;;;;;;;5009830;28;20083;-69
2023/01/09 13:34:50;;;;;;;3.45;0.65;;;;;;;;;;5003113;28;20045;-69
2023/01/09 13:37:25;;;;;;;5.70;1.20;;;;;;;;;;5008080;28;20049;-68
2023/01/09 13:40:05;;;;;;;3.00;0.60;;;;;;;;;;5007961;28;20033;-68
2023/01/09 13:42:44;;;;;;;2.00;0.80;;;;;;;;;;5006069;28;20076;-69
2023/01/09 13:45:16;;;;;;;9.60;4.00;;;;;;;;;;5002312;28;20283;-69
2023/01/09 13:47:41;;;;;;;1.67;0.93;;;;;;;;;;5005888;28;20287;-68
2023/01/09 13:50:07;;;;;;;4.05;0.90;;;;;;;;;;5008781;28;20026;-69
2023/01/09 13:52:39;;;;;;;2.35;1.00;;;;;;;;;;5007692;28;20022;-69
2023/01/09 13:55:11;;;;;;;5.18;0.90;;;;;;;;;;5006244;28;20014;-69
2023/01/09 13:57:56;;;;;;;8.55;1.05;;;;;;;;;;5006328;28;20013;-69
2023/01/09 14:00:21;;;;;;;1.80;0.70;;;;;;;;;;4988120;28;20038;-69
2023/01/09 14:02:48;;;;;;;4.05;1.20;;;;;;;;;;5006861;28;20029;-69
2023/01/09 14:05:22;;;;;;;4.43;0.75;;;;;;;;;;5005048;28;20016;-69
2023/01/09 14:07:48;;;;;;;15.35;1.98;;;;;;;;;;5004932;28;20494;-69
2023/01/09 14:10:24;;;;;;;5.65;1.70;;;;;;;;;;5003537;28;20164;-69
2023/01/09 14:12:53;;;;;;;1.35;0.85;;;;;;;;;;4997167;28;20502;-69
2023/01/09 14:15:24;;;;;;;7.78;1.10;;;;;;;;;;5002678;28;20377;-69
2023/01/09 14:17:57;;;;;;;10.55;1.17;;;;;;;;;;5000512;28;20018;-69
2023/01/09 14:20:24;;;;;;;9.15;1.13;;;;;;;;;;5008028;28;20029;-69
2023/01/09 14:22:54;;;;;;;8.18;1.75;;;;;;;;;;5007577;28;20037;-69
2023/01/09 14:25:21;;;;;;;4.43;1.40;;;;;;;;;;5004783;28;20034;-69
2023/01/09 14:27:52;;;;;;;6.60;1.63;;;;;;;;;;5006659;28;20505;-69
2023/01/09 14:30:36;;;;;;;6.20;1.38;;;;;;;;;;5000818;28;20018;-69
2023/01/09 14:33:24;;;;;;;5.32;1.45;;;;;;;;;;4993622;28;20509;-69
2023/01/09 14:36:08;;;;;;;9.07;2.22;;;;;;;;;;5000734;28;20044;-69
2023/01/09 14:38:33;;;;;;;11.38;1.65;;;;;;;;;;5004210;28;20026;-69
2023/01/09 14:41:16;;;;;;;5.50;1.27;;;;;;;;;;4986262;28;20119;-69
2023/01/09 14:43:53;;;;;;;11.07;1.73;;;;;;;;;;4994743;28;20305;-69
2023/01/09 14:46:18;;;;;;;10.95;1.88;;;;;;;;;;4982890;28;20033;-69
2023/01/09 14:48:57;;;;;;;12.85;1.38;;;;;;;;;;4997951;28;20382;-69
2023/01/09 14:51:23;;;;;;;12.70;1.40;;;;;;;;;;5006786;28;20553;-69
2023/01/09 14:53:50;;;;;;;4.35;0.80;;;;;;;;;;5004351;28;20029;-68
2023/01/09 14:56:27;;;;;;;5.68;1.50;;;;;;;;;;5007924;28;20021;-68
2023/01/09 14:59:02;;;;;;;4.63;1.10;;;;;;;;;;5002734;28;20025;-69
2023/01/09 15:01:31;;;;;;;8.15;2.30;;;;;;;;;;4997884;28;20026;-69
2023/01/09 15:03:58;;;;;;;10.45;1.77;;;;;;;;;;5004269;28;20026;-69
2023/01/09 15:06:25;;;;;;;6.22;1.58;;;;;;;;;;5008908;28;20025;-69
2023/01/09 15:09:01;;;;;;;4.55;1.52;;;;;;;;;;5006905;28;20120;-69
2023/01/09 15:11:27;;;;;;;11.15;2.13;;;;;;;;;;5001005;28;20458;-69
2023/01/09 15:13:52;;;;;;;2.22;1.27;;;;;;;;;;5005176;28;20022;-69
2023/01/09 15:16:19;;;;;;;10.80;1.75;;;;;;;;;;5005486;28;20061;-69